createdAt,value
2022-11-18T00:01:29.834Z,8.10
2022-11-18T00:03:57.921Z,8.20
2022-11-18T00:06:28.054Z,8.30
2022-11-18T00:08:57.022Z,8.40
2022-11-18T00:11:45.202Z,8.50
2022-11-18T00:14:23.042Z,8.40
2022-11-18T00:16:54.676Z,8.30
2022-11-18T00:19:25.879Z,8.40
2022-11-18T00:21:53.948Z,8.50
2022-11-18T00:24:23.162Z,8.60
2022-11-18T00:26:52.897Z,8.60
2022-11-18T00:29:21.637Z,8.70
2022-11-18T00:31:50.601Z,8.80
2022-11-18T00:34:19.910Z,8.50
2022-11-18T00:36:49.463Z,8.60
2022-11-18T00:39:20.611Z,8.70
2022-11-18T00:42:07.247Z,8.50
2022-11-18T00:44:37.126Z,8.40
2022-11-18T00:47:05.664Z,8.50
2022-11-18T00:49:33.818Z,8.60
2022-11-18T00:52:02.204Z,8.50
2022-11-18T00:54:30.317Z,8.50
2022-11-18T00:56:58.348Z,8.60
2022-11-18T00:59:27.016Z,8.60
2022-11-18T01:01:56.368Z,8.60
2022-11-18T01:04:24.685Z,8.60
2022-11-18T01:06:52.835Z,8.70
2022-11-18T01:09:20.968Z,8.80
2022-11-18T01:12:06.245Z,8.80
2022-11-18T01:14:34.301Z,8.80
2022-11-18T01:17:03.629Z,8.80
2022-11-18T01:19:31.763Z,8.70
2022-11-18T01:22:03.053Z,8.80
2022-11-18T01:24:31.791Z,8.80
2022-11-18T01:26:59.906Z,8.80
2022-11-18T01:29:27.938Z,8.90
2022-11-18T01:32:22.966Z,8.90
2022-11-18T01:34:45.621Z,8.80
2022-11-18T01:37:13.645Z,8.90
2022-11-18T01:39:41.616Z,8.90
2022-11-18T01:42:16.464Z,9.10
2022-11-18T01:45:05.097Z,9.20
2022-11-18T01:47:37.163Z,9.00
2022-11-18T01:50:09.441Z,9.00
2022-11-18T01:52:38.117Z,9.00
2022-11-18T01:55:12.641Z,9.10
2022-11-18T01:57:42.065Z,9.20
2022-11-18T02:00:12.203Z,9.20
2022-11-18T02:02:40.322Z,9.10
2022-11-18T02:05:12.106Z,9.20
2022-11-18T02:07:43.865Z,9.10
2022-11-18T02:10:22.200Z,9.00
2022-11-18T02:12:52.638Z,9.20
2022-11-18T02:15:29.603Z,9.30
2022-11-18T02:18:05.410Z,9.30
2022-11-18T02:20:38.666Z,9.20
2022-11-18T02:24:09.299Z,9.10
2022-11-18T02:27:17.693Z,9.10
2022-11-18T02:29:57.239Z,9.00
2022-11-18T02:32:31.378Z,9.10
2022-11-18T02:35:08.839Z,9.30
2022-11-18T02:37:44.415Z,9.40
2022-11-18T02:40:19.427Z,9.30
2022-11-18T02:42:55.385Z,9.20
2022-11-18T02:45:27.303Z,9.20
2022-11-18T02:47:57.856Z,9.20
2022-11-18T02:50:28.625Z,9.20
2022-11-18T02:53:00.993Z,9.20
2022-11-18T02:55:32.671Z,9.10
2022-11-18T02:58:04.041Z,9.10
2022-11-18T03:00:34.440Z,9.10
2022-11-18T03:03:24.565Z,9.10
2022-11-18T03:06:03.517Z,9.00
2022-11-18T03:08:38.578Z,9.00
2022-11-18T03:11:15.642Z,9.10
2022-11-18T03:14:04.155Z,9.10
2022-11-18T03:16:38.208Z,9.20
2022-11-18T03:19:15.127Z,9.30
2022-11-18T03:21:49.189Z,9.20
2022-11-18T03:24:23.604Z,9.20
2022-11-18T03:26:57.218Z,9.20
2022-11-18T03:29:31.812Z,9.20
2022-11-18T03:32:08.020Z,9.10
2022-11-18T03:34:40.827Z,9.00
2022-11-18T03:37:15.785Z,9.20
2022-11-18T03:39:49.992Z,9.10
2022-11-18T03:42:26.576Z,9.10
2022-11-18T03:45:02.591Z,9.10
2022-11-18T03:47:36.776Z,9.00
2022-11-18T03:50:13.727Z,8.90
2022-11-18T03:52:44.815Z,9.00
2022-11-18T03:55:18.051Z,9.00
2022-11-18T03:57:52.932Z,9.00
2022-11-18T04:00:21.590Z,8.90
2022-11-18T04:02:52.110Z,8.90
2022-11-18T04:05:20.766Z,8.80
2022-11-18T04:07:57.452Z,9.00
2022-11-18T04:10:30.955Z,9.20
2022-11-18T04:13:06.642Z,9.10
2022-11-18T04:15:37.987Z,9.10
2022-11-18T04:18:07.830Z,9.00
2022-11-18T04:20:37.414Z,9.00
2022-11-18T04:23:06.184Z,8.90
2022-11-18T04:25:34.626Z,8.80
2022-11-18T04:28:03.048Z,8.90
2022-11-18T04:30:31.332Z,8.90
2022-11-18T04:32:59.784Z,9.10
2022-11-18T04:35:30.046Z,9.10
2022-11-18T04:37:58.010Z,9.10
2022-11-18T04:40:26.130Z,9.00
2022-11-18T04:42:54.204Z,9.00
2022-11-18T04:45:25.217Z,8.90
2022-11-18T04:47:53.201Z,9.10
2022-11-18T04:50:21.212Z,9.10
2022-11-18T04:52:50.605Z,9.20
2022-11-18T04:55:18.627Z,9.20
2022-11-18T04:57:46.855Z,9.10
2022-11-18T05:00:15.734Z,9.10
2022-11-18T05:02:43.723Z,9.10
2022-11-18T05:05:13.455Z,9.10
2022-11-18T05:07:41.602Z,9.00
2022-11-18T05:10:11.404Z,9.10
2022-11-18T05:12:50.356Z,9.10
2022-11-18T05:15:19.546Z,9.30
2022-11-18T05:17:48.292Z,9.20
2022-11-18T05:20:17.628Z,9.10
2022-11-18T05:22:45.664Z,9.10
2022-11-18T05:25:15.048Z,9.10
2022-11-18T05:27:44.976Z,8.90
2022-11-18T05:30:15.009Z,8.90
2022-11-18T05:32:43.014Z,9.10
2022-11-18T05:35:11.168Z,9.10
2022-11-18T05:37:39.176Z,9.10
2022-11-18T05:40:09.598Z,9.10
2022-11-18T05:42:56.223Z,9.00
2022-11-18T05:45:24.278Z,9.20
2022-11-18T05:48:01.419Z,9.10
2022-11-18T05:50:29.702Z,9.00
2022-11-18T05:52:57.965Z,9.00
2022-11-18T05:55:30.529Z,9.00
2022-11-18T05:58:02.013Z,9.00
2022-11-18T06:00:31.356Z,9.30
2022-11-18T06:03:00.293Z,9.30
2022-11-18T06:05:28.527Z,9.20
2022-11-18T06:07:59.053Z,9.00
2022-11-18T06:10:32.315Z,9.10
2022-11-18T06:13:06.653Z,9.10
2022-11-18T06:15:38.606Z,9.10
2022-11-18T06:18:11.887Z,9.00
2022-11-18T06:20:41.704Z,9.10
2022-11-18T06:23:09.836Z,9.10
2022-11-18T06:25:39.924Z,9.20
2022-11-18T06:28:12.107Z,9.20
2022-11-18T06:30:40.395Z,9.30
2022-11-18T06:33:08.686Z,9.40
2022-11-18T06:35:36.752Z,9.40
2022-11-18T06:38:04.816Z,9.50
2022-11-18T06:40:34.877Z,9.60
2022-11-18T06:43:26.488Z,9.40
2022-11-18T06:46:12.280Z,9.50
2022-11-18T06:48:40.240Z,9.70
2022-11-18T06:51:08.890Z,9.80
2022-11-18T06:53:37.032Z,9.70
2022-11-18T06:56:05.673Z,9.70
2022-11-18T06:58:35.844Z,9.60
2022-11-18T07:01:11.553Z,9.50
2022-11-18T07:03:39.886Z,9.30
2022-11-18T07:06:09.532Z,9.30
2022-11-18T07:08:38.439Z,9.70
2022-11-18T07:11:09.005Z,9.70
2022-11-18T07:13:43.415Z,9.70
2022-11-18T07:16:14.385Z,9.50
2022-11-18T07:18:44.460Z,9.50
2022-11-18T07:21:15.037Z,9.70
2022-11-18T07:23:43.183Z,9.80
2022-11-18T07:26:11.464Z,9.80
2022-11-18T07:28:41.057Z,9.90
2022-11-18T07:31:12.477Z,9.90
2022-11-18T07:33:47.103Z,9.80
2022-11-18T07:36:22.368Z,9.90
2022-11-18T07:38:51.059Z,9.90
2022-11-18T07:41:21.552Z,9.80
2022-11-18T07:43:57.570Z,9.70
2022-11-18T07:46:31.220Z,9.70
2022-11-18T07:49:01.972Z,9.80
2022-11-18T07:51:32.282Z,9.90
2022-11-18T07:54:00.339Z,9.80
2022-11-18T07:56:28.722Z,9.80
2022-11-18T07:58:58.108Z,9.70
2022-11-18T08:01:29.032Z,9.70
2022-11-18T08:03:57.546Z,9.60
2022-11-18T08:06:25.568Z,9.50
2022-11-18T08:08:54.047Z,9.50
2022-11-18T08:11:23.091Z,9.50
2022-11-18T08:13:51.360Z,9.40
2022-11-18T08:16:23.842Z,9.40
2022-11-18T08:18:52.949Z,9.40
2022-11-18T08:21:23.443Z,9.50
2022-11-18T08:23:52.717Z,9.50
2022-11-18T08:26:21.554Z,9.50
2022-11-18T08:28:49.762Z,9.60
2022-11-18T08:31:21.981Z,9.90
2022-11-18T08:33:50.077Z,10.00
2022-11-18T08:36:22.532Z,10.10
2022-11-18T08:38:50.623Z,10.00
2022-11-18T08:41:22.035Z,10.20
2022-11-18T08:43:50.046Z,10.40
2022-11-18T08:46:18.085Z,10.70
2022-11-18T08:48:47.474Z,10.80
2022-11-18T08:51:16.898Z,10.80
2022-11-18T08:53:45.113Z,10.80
2022-11-18T08:56:17.326Z,11.00
2022-11-18T08:58:45.602Z,11.10
2022-11-18T09:01:14.644Z,10.90
2022-11-18T09:03:43.071Z,10.90
2022-11-18T09:06:15.533Z,10.90
2022-11-18T09:08:44.231Z,10.80
2022-11-18T09:11:15.099Z,11.10
2022-11-18T09:14:14.297Z,11.10
2022-11-18T09:16:35.805Z,11.30
2022-11-18T09:19:31.664Z,11.10
2022-11-18T09:21:53.852Z,11.20
2022-11-18T09:24:22.011Z,11.50
2022-11-18T09:26:50.214Z,11.60
2022-11-18T09:29:18.353Z,11.40
2022-11-18T09:31:46.628Z,11.30
2022-11-18T09:34:14.698Z,11.40
2022-11-18T09:36:42.689Z,11.60
2022-11-18T09:39:12.425Z,11.90
2022-11-18T09:41:48.538Z,11.90
2022-11-18T09:44:52.726Z,12.00
2022-11-18T09:47:28.088Z,12.10
2022-11-18T09:50:06.628Z,11.90
2022-11-18T09:52:57.125Z,12.00
2022-11-18T09:55:26.964Z,12.00
2022-11-18T09:57:58.130Z,11.90
2022-11-18T10:00:30.206Z,11.80
2022-11-18T10:03:02.076Z,11.80
2022-11-18T10:05:33.382Z,11.80
2022-11-18T10:08:12.385Z,11.80
2022-11-18T10:10:56.372Z,11.70
2022-11-18T10:13:36.854Z,11.60
2022-11-18T10:16:22.971Z,11.70
2022-11-18T10:19:00.684Z,11.80
2022-11-18T10:21:43.770Z,12.10
2022-11-18T10:24:18.165Z,12.20
2022-11-18T10:26:48.030Z,12.30
2022-11-18T10:29:16.081Z,12.10
2022-11-18T10:32:03.783Z,11.70
2022-11-18T10:34:33.198Z,11.60
2022-11-18T10:37:03.953Z,11.80
2022-11-18T10:39:32.473Z,11.80
2022-11-18T10:42:06.627Z,12.00
2022-11-18T10:44:45.916Z,12.10
2022-11-18T10:47:27.759Z,12.20
2022-11-18T10:49:59.387Z,12.20
2022-11-18T10:52:29.793Z,12.30
2022-11-18T10:55:21.981Z,12.40
2022-11-18T10:57:56.389Z,12.50
2022-11-18T11:00:45.823Z,12.70
2022-11-18T11:03:36.617Z,12.70
2022-11-18T11:06:38.627Z,12.60
2022-11-18T11:09:23.873Z,12.70
2022-11-18T11:11:59.985Z,12.70
2022-11-18T11:14:36.463Z,12.70
2022-11-18T11:17:10.835Z,12.80
2022-11-18T11:19:49.143Z,12.90
2022-11-18T11:22:17.950Z,12.90
2022-11-18T11:24:46.154Z,12.80
2022-11-18T11:30:33.142Z,13.00
2022-11-18T11:33:23.535Z,12.80
2022-11-18T11:36:10.757Z,12.70
2022-11-18T11:39:01.277Z,12.60
2022-11-18T11:41:39.028Z,12.60
2022-11-18T11:44:31.899Z,12.90
2022-11-18T11:47:33.852Z,13.30
2022-11-18T11:50:09.985Z,14.50
2022-11-18T11:52:50.884Z,15.40
2022-11-18T11:55:27.781Z,15.60
2022-11-18T11:58:15.742Z,15.50
2022-11-18T12:00:51.909Z,15.40
2022-11-18T12:03:46.082Z,15.60
2022-11-18T12:06:18.453Z,15.40
2022-11-18T12:09:03.135Z,14.80
2022-11-18T12:11:41.633Z,14.30
2022-11-18T12:14:20.771Z,14.10
2022-11-18T12:16:56.525Z,14.50
2022-11-18T12:19:26.280Z,14.80
2022-11-18T12:22:03.866Z,14.90
2022-11-18T12:24:38.786Z,15.40
2022-11-18T12:27:14.372Z,16.00
2022-11-18T12:29:59.949Z,15.90
2022-11-18T12:32:42.478Z,16.30
2022-11-18T12:35:28.518Z,16.90
2022-11-18T12:38:06.936Z,16.60
2022-11-18T12:40:50.514Z,16.60
2022-11-18T12:44:05.077Z,15.90
2022-11-18T12:46:54.568Z,14.90
2022-11-18T12:50:12.620Z,14.60
2022-11-18T12:52:52.536Z,14.40
2022-11-18T12:55:32.205Z,13.70
2022-11-18T12:58:00.384Z,13.50
2022-11-18T13:00:52.133Z,13.40
2022-11-18T13:03:28.590Z,13.30
2022-11-18T13:06:06.160Z,12.90
2022-11-18T13:08:36.308Z,13.10
2022-11-18T13:11:33.404Z,12.80
2022-11-18T13:14:20.792Z,12.70
2022-11-18T13:17:06.864Z,12.70
2022-11-18T13:19:35.391Z,12.50
2022-11-18T13:22:22.172Z,12.30
2022-11-18T13:24:53.349Z,12.20
2022-11-18T13:27:39.011Z,12.00
2022-11-18T13:30:12.236Z,12.20
2022-11-18T13:32:45.304Z,12.20
2022-11-18T13:35:16.646Z,12.10
2022-11-18T13:37:53.324Z,12.10
2022-11-18T13:40:26.697Z,11.80
2022-11-18T13:42:54.897Z,11.80
2022-11-18T13:45:27.446Z,11.90
2022-11-18T13:48:00.315Z,12.10
2022-11-18T13:50:36.418Z,12.20
2022-11-18T13:53:18.987Z,12.00
2022-11-18T13:55:53.618Z,11.90
2022-11-18T13:58:55.742Z,11.70
2022-11-18T14:01:25.542Z,11.70
2022-11-18T14:03:58.581Z,11.60
2022-11-18T14:06:29.293Z,11.30
2022-11-18T14:09:22.429Z,11.20
2022-11-18T14:12:03.785Z,11.20
2022-11-18T14:14:34.752Z,11.30
2022-11-18T14:17:22.632Z,11.20
2022-11-18T14:19:54.784Z,11.50
2022-11-18T14:22:25.198Z,11.50
2022-11-18T14:24:58.951Z,11.40
2022-11-18T14:27:37.844Z,11.30
2022-11-18T14:30:32.625Z,11.20
2022-11-18T14:33:22.271Z,11.10
2022-11-18T14:35:57.175Z,10.80
2022-11-18T14:38:52.052Z,10.80
2022-11-18T14:41:44.640Z,10.40
2022-11-18T14:44:14.962Z,10.10
2022-11-18T14:46:46.199Z,10.10
2022-11-18T14:49:18.169Z,10.10
2022-11-18T14:51:46.941Z,9.90
2022-11-18T14:54:20.826Z,9.90
2022-11-18T14:56:57.155Z,9.70
2022-11-18T14:59:26.715Z,9.60
2022-11-18T15:01:56.448Z,9.40
2022-11-18T15:04:25.531Z,9.50
2022-11-18T15:06:53.858Z,9.50
2022-11-18T15:09:22.058Z,9.40
2022-11-18T15:11:50.159Z,9.40
2022-11-18T15:14:18.491Z,9.20
2022-11-18T15:16:48.090Z,9.30
2022-11-18T15:19:17.518Z,9.30
2022-11-18T15:21:46.303Z,9.10
2022-11-18T15:24:14.451Z,9.10
2022-11-18T15:26:45.631Z,9.10
2022-11-18T15:29:19.200Z,8.90
2022-11-18T15:31:49.427Z,8.80
2022-11-18T15:34:20.280Z,8.80
2022-11-18T15:36:49.766Z,8.80
2022-11-18T15:39:17.855Z,8.70
2022-11-18T15:41:45.847Z,8.70
2022-11-18T15:44:14.056Z,8.60
2022-11-18T15:46:42.522Z,8.60
2022-11-18T15:49:17.540Z,8.40
2022-11-18T15:51:45.740Z,8.40
2022-11-18T15:54:14.300Z,8.50
2022-11-18T15:56:42.334Z,8.50
2022-11-18T15:59:12.315Z,8.50
2022-11-18T16:01:42.723Z,8.60
2022-11-18T16:04:13.995Z,8.40
2022-11-18T16:06:44.157Z,8.40
2022-11-18T16:09:13.520Z,8.20
2022-11-18T16:11:59.577Z,8.10
2022-11-18T16:14:28.045Z,8.10
2022-11-18T16:16:57.698Z,8.00
2022-11-18T16:19:31.360Z,7.90
2022-11-18T16:21:59.407Z,7.90
2022-11-18T16:24:29.952Z,7.90
2022-11-18T16:26:58.446Z,7.90
2022-11-18T16:29:26.484Z,7.90
2022-11-18T16:31:54.998Z,8.00
2022-11-18T16:34:27.251Z,8.10
2022-11-18T16:36:57.411Z,8.10
2022-11-18T16:39:27.671Z,8.20
2022-11-18T16:42:02.174Z,8.20
2022-11-18T16:44:35.668Z,8.10
2022-11-18T16:47:10.526Z,8.10
2022-11-18T16:49:44.206Z,8.20
2022-11-18T16:52:12.273Z,8.30
2022-11-18T16:54:45.327Z,8.20
2022-11-18T16:57:14.251Z,8.10
2022-11-18T16:59:42.297Z,8.30
2022-11-18T17:02:13.755Z,8.20
2022-11-18T17:04:43.799Z,8.30
2022-11-18T17:07:11.913Z,8.10
2022-11-18T17:09:40.095Z,8.10
2022-11-18T17:12:09.012Z,8.30
2022-11-18T17:14:38.441Z,8.50
2022-11-18T17:17:06.489Z,8.40
2022-11-18T17:19:34.500Z,8.30
2022-11-18T17:22:03.863Z,8.40
2022-11-18T17:24:31.921Z,8.50
2022-11-18T17:26:59.963Z,8.50
2022-11-18T17:29:28.061Z,8.50
2022-11-18T17:31:56.089Z,8.40
2022-11-18T17:34:24.335Z,8.40
2022-11-18T17:36:52.309Z,8.10
2022-11-18T17:39:21.794Z,8.20
2022-11-18T17:42:07.307Z,8.10
2022-11-18T17:44:35.339Z,8.20
2022-11-18T17:47:03.749Z,8.10
2022-11-18T17:49:31.854Z,8.10
2022-11-18T17:51:59.948Z,8.20
2022-11-18T17:54:29.415Z,8.20
2022-11-18T17:56:57.452Z,8.20
2022-11-18T17:59:25.580Z,8.20
2022-11-18T18:01:58.947Z,8.30
2022-11-18T18:04:28.695Z,8.20
2022-11-18T18:06:56.722Z,8.20
2022-11-18T18:09:30.541Z,8.30
2022-11-18T18:12:21.470Z,8.20
2022-11-18T18:14:48.553Z,8.40
2022-11-18T18:17:17.042Z,8.70
2022-11-18T18:19:46.157Z,8.50
2022-11-18T18:22:14.213Z,8.50
2022-11-18T18:24:42.209Z,8.40
2022-11-18T18:27:11.593Z,8.50
2022-11-18T18:29:39.627Z,8.50
2022-11-18T18:32:07.693Z,8.60
2022-11-18T18:34:36.096Z,8.50
2022-11-18T18:37:04.098Z,8.30
2022-11-18T18:39:32.099Z,8.30
2022-11-18T18:42:00.387Z,8.30
2022-11-18T18:44:50.405Z,8.40
2022-11-18T18:47:17.686Z,8.50
2022-11-18T18:49:45.698Z,8.30
2022-11-18T18:52:13.679Z,8.30
2022-11-18T18:54:41.751Z,8.30
2022-11-18T18:57:09.781Z,8.20
2022-11-18T18:59:39.270Z,8.20
2022-11-18T19:02:07.280Z,8.30
2022-11-18T19:04:35.366Z,8.40
2022-11-18T19:07:03.419Z,8.30
2022-11-18T19:09:34.408Z,8.40
2022-11-18T19:12:28.624Z,8.30
2022-11-18T19:14:58.041Z,8.40
2022-11-18T19:17:26.232Z,8.40
2022-11-18T19:20:12.242Z,8.30
2022-11-18T19:22:41.294Z,8.20
2022-11-18T19:25:10.646Z,8.40
2022-11-18T19:27:40.078Z,8.50
2022-11-18T19:30:11.943Z,8.40
2022-11-18T19:32:41.736Z,8.40
2022-11-18T19:35:11.258Z,8.40
2022-11-18T19:37:39.519Z,8.50
2022-11-18T19:40:10.477Z,8.40
2022-11-18T19:42:39.540Z,8.30
2022-11-18T19:45:10.449Z,8.50
2022-11-18T19:47:38.788Z,8.60
2022-11-18T19:50:13.152Z,8.50
2022-11-18T19:52:41.361Z,8.50
2022-11-18T19:55:10.555Z,8.50
2022-11-18T19:57:38.607Z,8.50
2022-11-18T20:00:10.220Z,8.40
2022-11-18T20:02:39.460Z,8.40
2022-11-18T20:05:26.090Z,8.40
2022-11-18T20:07:56.434Z,8.50
2022-11-18T20:10:24.675Z,8.40
2022-11-18T20:12:52.735Z,8.40
2022-11-18T20:15:22.407Z,8.30
2022-11-18T20:17:50.452Z,8.30
2022-11-18T20:20:18.606Z,8.30
2022-11-18T20:22:46.739Z,8.30
2022-11-18T20:25:15.513Z,8.30
2022-11-18T20:27:43.605Z,8.40
2022-11-18T20:30:13.028Z,8.30
2022-11-18T20:32:42.429Z,8.20
2022-11-18T20:35:11.040Z,8.30
2022-11-18T20:37:39.103Z,8.40
2022-11-18T20:40:08.784Z,8.50
2022-11-18T20:42:54.103Z,8.70
2022-11-18T20:45:22.270Z,8.70
2022-11-18T20:47:51.620Z,8.70
2022-11-18T20:50:19.658Z,8.60
2022-11-18T20:52:47.655Z,8.50
2022-11-18T20:55:15.923Z,8.50
2022-11-18T20:57:43.994Z,8.40
2022-11-18T21:00:13.161Z,8.40
2022-11-18T21:02:41.235Z,8.40
2022-11-18T21:05:10.988Z,8.30
2022-11-18T21:07:39.026Z,8.30
2022-11-18T21:10:08.551Z,8.30
2022-11-18T21:12:36.603Z,8.40
2022-11-18T21:15:04.516Z,8.30
2022-11-18T21:17:32.658Z,8.30
2022-11-18T21:20:21.287Z,8.30
2022-11-18T21:22:49.673Z,8.40
2022-11-18T21:25:17.846Z,8.60
2022-11-18T21:27:47.072Z,8.60
2022-11-18T21:30:15.382Z,8.50
2022-11-18T21:32:43.372Z,8.40
2022-11-18T21:35:11.431Z,8.50
2022-11-18T21:37:39.470Z,8.60
2022-11-18T21:40:10.812Z,8.50
2022-11-18T21:42:39.907Z,8.40
2022-11-18T21:45:09.934Z,8.30
2022-11-18T21:47:37.931Z,8.30
2022-11-18T21:50:07.604Z,8.40
2022-11-18T21:52:37.693Z,8.40
2022-11-18T21:55:08.544Z,8.50
2022-11-18T21:57:36.510Z,8.40
2022-11-18T22:00:07.724Z,8.50
2022-11-18T22:02:35.770Z,8.70
2022-11-18T22:05:07.324Z,8.50
2022-11-18T22:07:35.420Z,8.60
2022-11-18T22:10:03.564Z,8.50
2022-11-18T22:12:32.927Z,8.50
2022-11-18T22:15:01.044Z,8.60
2022-11-18T22:17:29.100Z,8.40
2022-11-18T22:19:57.106Z,8.40
2022-11-18T22:22:25.117Z,8.30
2022-11-18T22:24:53.113Z,8.20
2022-11-18T22:27:21.076Z,8.30
2022-11-18T22:29:50.467Z,8.20
2022-11-18T22:32:20.308Z,8.20
2022-11-18T22:34:51.804Z,8.20
2022-11-18T22:37:20.052Z,8.10
2022-11-18T22:39:48.090Z,8.10
2022-11-18T22:42:33.614Z,8.40
2022-11-18T22:45:02.964Z,8.30
2022-11-18T22:47:30.955Z,8.10
2022-11-18T22:49:58.990Z,8.20
2022-11-18T22:52:26.990Z,8.00
2022-11-18T22:54:57.412Z,8.00
2022-11-18T22:57:25.448Z,8.00
2022-11-18T22:59:53.451Z,8.00
2022-11-18T23:02:22.995Z,7.80
2022-11-18T23:04:50.983Z,8.10
2022-11-18T23:07:19.144Z,8.00
2022-11-18T23:09:47.188Z,8.00
2022-11-18T23:12:32.714Z,7.90
2022-11-18T23:15:00.831Z,8.10
2022-11-18T23:17:30.169Z,8.30
2022-11-18T23:19:58.164Z,8.20
2022-11-18T23:22:26.163Z,8.10
2022-11-18T23:24:54.143Z,8.10
2022-11-18T23:27:22.136Z,8.10
2022-11-18T23:29:50.079Z,8.00
2022-11-18T23:32:18.062Z,8.00
2022-11-18T23:34:48.255Z,7.90
2022-11-18T23:37:16.442Z,7.90
2022-11-18T23:39:44.461Z,7.90
2022-11-18T23:42:12.439Z,7.90
2022-11-18T23:44:46.222Z,8.00
2022-11-18T23:47:14.923Z,8.00
2022-11-18T23:49:42.964Z,8.00
2022-11-18T23:52:12.657Z,7.90
2022-11-18T23:54:40.658Z,7.90
2022-11-18T23:57:08.798Z,8.00
2022-11-18T23:59:36.814Z,7.90
